Time;durP1;ratioP1;P1;durP2;ratioP2;P2;SDS_P1;SDS_P2;PMS_P1;PMS_P2;Temp;Humidity;BMP_temperature;BMP_pressure;BME280_temperature;BME280_humidity;BME280_pressure;Samples;Min_cycle;Max_cycle;Signal;HPM_P1;HPM_P2
2023/01/17 10:24:07;;;;;;;3.63;2.90;;;;;;;5.33;88.09;96238.00;5109884;28;20566;-82
2023/01/17 10:26:38;;;;;;;2.73;2.50;;;;;;;6.24;84.00;96249.56;5108534;28;40393;-82
2023/01/17 10:29:14;;;;;;;4.20;2.97;;;;;;;6.84;79.27;96259.97;5126049;27;41752;-82
2023/01/17 10:31:49;;;;;;;4.63;2.60;;;;;;;7.26;75.40;96270.25;5141210;27;43724;-83
2023/01/17 10:34:21;;;;;;;2.63;2.20;;;;;;;7.67;72.48;96273.50;5091733;28;40499;-82
2023/01/17 10:36:56;;;;;;;3.07;2.50;;;;;;;8.02;71.65;96257.94;5108917;28;39382;-84
2023/01/17 10:39:25;;;;;;;4.70;2.27;;;;;;;8.50;69.10;96267.47;5091774;28;40640;-83
2023/01/17 10:41:58;;;;;;;4.47;2.93;;;;;;;8.94;68.36;96282.50;5091042;28;42861;-82
2023/01/17 10:44:32;;;;;;;3.60;2.40;;;;;;;9.34;66.80;96271.50;5108745;28;41496;-83
2023/01/17 10:47:07;;;;;;;3.03;2.67;;;;;;;9.80;62.36;96292.50;5108387;28;39271;-83
2023/01/17 10:49:39;;;;;;;2.70;2.43;;;;;;;10.62;61.17;96295.53;5091449;28;41855;-83
2023/01/17 10:52:15;;;;;;;2.87;2.17;;;;;;;13.28;57.32;96290.25;5125604;27;41639;-83
2023/01/17 10:55:09;;;;;;;3.60;2.47;;;;;;;14.97;51.06;96315.53;5091492;28;41211;-84
2023/01/17 10:57:43;;;;;;;2.40;2.00;;;;;;;16.24;47.40;96315.88;5108349;28;40010;-83
2023/01/17 11:00:30;;;;;;;4.23;1.83;;;;;;;15.69;47.56;96301.44;5091481;28;40461;-83
2023/01/17 11:03:00;;;;;;;3.73;2.30;;;;;;;16.29;45.01;96318.81;5125119;27;41900;-83
2023/01/17 11:05:30;;;;;;;3.07;2.20;;;;;;;18.41;41.63;96337.44;5091192;28;41663;-84
2023/01/17 11:08:00;;;;;;;3.27;2.00;;;;;;;20.60;38.07;96355.19;5124962;27;38753;-83
2023/01/17 11:10:38;;;;;;;3.43;2.10;;;;;;;22.51;34.30;96364.53;5107898;28;41666;-84
2023/01/17 11:13:24;;;;;;;2.00;1.80;;;;;;;22.48;34.84;96343.44;5125235;27;41812;-83
2023/01/17 11:15:56;;;;;;;2.20;1.90;;;;;;;22.03;32.76;96353.00;5107916;28;42291;-84
2023/01/17 11:18:27;;;;;;;2.10;1.90;;;;;;;21.20;33.63;96342.00;5090880;28;38770;-84
2023/01/17 11:21:10;;;;;;;4.57;2.00;;;;;;;19.29;35.94;96290.44;5104914;28;42091;-85
2023/01/17 11:23:41;;;;;;;2.67;2.00;;;;;;;18.27;37.41;96315.16;5090821;28;43122;-84
2023/01/17 11:26:13;;;;;;;3.47;2.23;;;;;;;17.47;40.40;96292.75;5139261;27;42256;-83
2023/01/17 11:28:43;;;;;;;2.00;1.80;;;;;;;17.18;39.57;96298.44;5091087;28;38878;-83
2023/01/17 11:31:25;;;;;;;3.77;2.00;;;;;;;17.57;38.50;96282.47;5124737;27;40433;-83
2023/01/17 11:34:08;;;;;;;2.20;1.87;;;;;;;18.60;36.88;96305.28;5082089;28;43274;-84
2023/01/17 11:36:36;;;;;;;3.90;1.80;;;;;;;17.34;37.84;96287.38;5077458;28;42190;-82
2023/01/17 11:39:07;;;;;;;2.33;1.67;;;;;;;17.56;37.77;96298.75;5077299;28;38796;-83
2023/01/17 11:41:37;;;;;;;3.00;2.10;;;;;;;18.36;37.53;96286.31;5076859;28;40429;-84
2023/01/17 11:44:21;;;;;;;4.73;1.97;;;;;;;17.17;37.16;96278.06;5110974;28;42504;-83
2023/01/17 11:47:07;;;;;;;2.83;2.17;;;;;;;16.05;38.24;96278.16;5091998;28;42118;-83
2023/01/17 11:49:35;;;;;;;3.43;1.87;;;;;;;14.82;40.56;96255.28;5110879;28;40503;-84
2023/01/17 11:52:09;;;;;;;2.80;2.00;;;;;;;14.24;41.87;96241.75;5076579;28;41639;-83
2023/01/17 11:54:41;;;;;;;1.97;1.83;;;;;;;13.78;42.78;96238.38;5077258;28;41738;-83
2023/01/17 11:57:24;;;;;;;3.43;1.63;;;;;;;13.15;43.01;96242.19;5091998;28;42140;-83
2023/01/17 12:00:02;;;;;;;3.30;1.90;;;;;;;12.53;43.89;96218.22;5093774;28;40009;-84
2023/01/17 12:03:14;;;;;;;3.00;1.90;;;;;;;12.00;43.59;96220.72;5093529;28;40823;-83
2023/01/17 12:05:52;;;;;;;2.60;1.83;;;;;;;11.49;45.32;96196.25;5093606;28;42008;-83
2023/01/17 12:08:31;;;;;;;1.87;1.50;;;;;;;11.39;46.35;96200.88;5076656;28;41673;-83
2023/01/17 12:11:10;;;;;;;1.97;1.77;;;;;;;11.31;47.13;96182.31;5077063;28;39954;-83
2023/01/17 12:14:00;;;;;;;2.60;1.90;;;;;;;12.56;45.50;96180.72;5124749;27;41887;-83
2023/01/17 12:16:44;;;;;;;2.07;1.87;;;;;;;12.24;44.49;96180.84;5076393;28;41758;-82
2023/01/17 12:19:33;;;;;;;3.20;1.60;;;;;;;11.83;43.92;96178.34;5076192;28;40858;-82
2023/01/17 12:22:21;;;;;;;2.47;1.53;;;;;;;11.62;44.67;96190.44;5093503;28;39898;-84
2023/01/17 12:25:22;;;;;;;2.87;1.60;;;;;;;12.10;44.31;96195.69;5110937;28;41773;-83
2023/01/17 12:28:05;;;;;;;2.50;2.30;;;;;;;15.09;40.30;96214.59;5093681;28;41743;-83
2023/01/17 12:31:00;;;;;;;1.53;1.43;;;;;;;13.95;39.92;96200.00;5077182;28;41538;-83
2023/01/17 12:33:40;;;;;;;2.37;1.70;;;;;;;13.26;41.76;96188.63;5093468;28;38975;-84
2023/01/17 12:36:16;;;;;;;2.07;1.47;;;;;;;12.70;42.95;96170.38;5091480;28;42544;-83
2023/01/17 12:38:47;;;;;;;2.23;1.33;;;;;;;12.40;43.71;96175.50;5093529;28;41838;-83
2023/01/17 12:41:22;;;;;;;1.87;1.60;;;;;;;11.98;43.89;96177.66;5076234;28;41213;-83
2023/01/17 12:43:54;;;;;;;3.37;1.70;;;;;;;11.53;45.50;96147.19;5093369;28;38967;-83
2023/01/17 12:46:27;;;;;;;1.60;1.50;;;;;;;11.23;46.29;96159.31;5074696;28;40967;-83
2023/01/17 12:49:02;;;;;;;2.20;1.40;;;;;;;10.82;46.22;96155.81;5093398;28;41768;-83
2023/01/17 12:51:37;;;;;;;2.37;1.60;;;;;;;10.28;46.29;96157.97;5110637;28;41847;-83
2023/01/17 12:54:14;;;;;;;1.83;1.73;;;;;;;9.98;46.79;96161.16;5076476;28;40109;-84
2023/01/17 12:56:48;;;;;;;1.67;1.57;;;;;;;9.56;47.58;96146.03;5093040;28;41204;-82
2023/01/17 12:59:26;;;;;;;6.33;3.10;;;;;;;9.37;47.81;96159.47;5093282;28;41911;-82
2023/01/17 13:01:57;;;;;;;3.17;2.03;;;;;;;9.02;47.88;96140.03;5091165;28;43058;-83
2023/01/17 13:04:33;;;;;;;1.87;1.57;;;;;;;8.90;47.48;96154.44;5076378;28;38985;-83
2023/01/17 13:07:12;;;;;;;1.93;1.47;;;;;;;8.74;47.19;96158.75;5091511;28;43117;-83
2023/01/17 13:09:49;;;;;;;3.07;1.47;;;;;;;8.48;47.26;96150.75;5110239;28;41943;-82
2023/01/17 13:12:21;;;;;;;2.53;1.80;;;;;;;8.49;47.92;96162.97;5093048;28;41205;-83
2023/01/17 13:14:49;;;;;;;2.90;1.87;;;;;;;8.38;47.88;96165.81;5076294;28;38866;-83
2023/01/17 13:17:33;;;;;;;1.80;1.70;;;;;;;8.26;48.45;96160.72;5109719;28;40610;-83
2023/01/17 13:20:15;;;;;;;2.07;1.60;;;;;;;8.11;48.63;96156.06;5089805;28;42488;-84
2023/01/17 13:22:44;;;;;;;4.30;2.17;;;;;;;7.82;48.22;96137.75;5075085;28;40958;-84
2023/01/17 13:25:29;;;;;;;3.07;2.30;;;;;;;7.82;48.92;96143.03;5092855;28;41133;-83
2023/01/17 13:28:03;;;;;;;3.27;2.27;;;;;;;7.72;48.33;96144.88;5075158;28;40486;-83
2023/01/17 13:31:01;;;;;;;3.20;2.17;;;;;;;7.72;48.81;96143.06;5092520;28;41552;-83
2023/01/17 13:33:46;;;;;;;2.50;2.07;;;;;;;7.71;49.38;96148.47;5089458;28;42149;-82
2023/01/17 13:36:37;;;;;;;2.43;2.10;;;;;;;7.70;49.67;96146.81;5092152;28;38890;-82
2023/01/17 13:39:30;;;;;;;4.63;2.13;;;;;;;7.71;49.09;96145.84;5075754;28;40853;-83
2023/01/17 13:42:10;;;;;;;3.10;2.80;;;;;;;7.64;50.09;96121.06;5092062;28;41989;-82
2023/01/17 13:44:38;;;;;;;2.90;2.40;;;;;;;7.65;50.32;96109.56;5075460;28;42388;-83
2023/01/17 13:47:30;;;;;;;3.23;2.20;;;;;;;7.82;50.95;96098.25;5075387;28;39020;-83
2023/01/17 13:49:58;;;;;;;4.60;2.30;;;;;;;7.94;50.82;96092.63;5092309;28;42693;-84
2023/01/17 13:52:31;;;;;;;2.83;2.30;;;;;;;8.00;50.74;96091.22;5075243;28;42146;-84
2023/01/17 13:55:01;;;;;;;2.57;2.10;;;;;;;8.09;50.43;96113.22;5076137;28;42544;-82
2023/01/17 13:57:42;;;;;;;2.63;2.00;;;;;;;8.12;50.62;96120.84;5091998;28;40526;-83
2023/01/17 14:00:50;;;;;;;3.37;2.00;;;;;;;8.07;49.91;96108.09;5092162;28;41711;-83
2023/01/17 14:03:51;;;;;;;4.03;2.00;;;;;;;7.89;50.28;96110.69;5091905;28;43410;-84
2023/01/17 14:06:33;;;;;;;2.40;2.20;;;;;;;7.67;51.39;96099.69;5089313;28;43202;-83
2023/01/17 14:09:11;;;;;;;2.10;1.90;;;;;;;7.55;51.33;96085.88;5092074;28;39444;-84
2023/01/17 14:11:52;;;;;;;4.40;2.53;;;;;;;7.34;51.80;96080.84;5091877;28;40675;-83
2023/01/17 14:14:46;;;;;;;3.70;2.00;;;;;;;7.29;51.59;96098.06;5109128;28;42908;-83
2023/01/17 14:17:50;;;;;;;3.20;2.10;;;;;;;7.12;52.06;96091.72;5074962;28;41656;-82
2023/01/17 14:20:48;;;;;;;3.73;2.63;;;;;;;6.92;52.56;96079.59;5034403;28;38786;-82
2023/01/17 14:23:34;;;;;;;3.97;2.43;;;;;;;6.82;52.74;96088.31;5091682;28;40591;-83
2023/01/17 14:26:20;;;;;;;6.70;4.10;;;;;;;6.66;53.28;96077.53;5063141;28;41758;-83
2023/01/17 14:28:48;;;;;;;13.03;7.50;;;;;;;6.42;53.48;96054.31;5109294;28;41833;-84
2023/01/17 14:31:18;;;;;;;11.50;6.07;;;;;;;6.31;54.06;96061.47;5074694;28;38975;-82
2023/01/17 14:33:46;;;;;;;7.37;4.63;;;;;;;6.05;54.09;96045.44;5108788;28;40876;-82
2023/01/17 14:36:23;;;;;;;7.83;4.73;;;;;;;5.91;54.50;96044.06;5074578;28;41585;-82
2023/01/17 14:38:51;;;;;;;8.43;4.30;;;;;;;5.77;54.68;96031.28;5108879;28;41230;-83
2023/01/17 14:41:24;;;;;;;5.63;3.37;;;;;;;5.75;54.96;96041.91;5058014;28;38772;-82
2023/01/17 14:43:53;;;;;;;3.47;2.60;;;;;;;5.65;55.55;96032.34;5088719;28;41872;-84
2023/01/17 14:46:27;;;;;;;4.53;2.80;;;;;;;5.49;55.64;96021.53;5092417;28;43700;-83
2023/01/17 14:49:01;;;;;;;3.33;2.63;;;;;;;5.49;55.64;96037.28;5074759;28;41843;-82
2023/01/17 14:51:33;;;;;;;3.17;2.40;;;;;;;5.45;56.20;96030.63;5108486;28;39299;-82
2023/01/17 14:54:04;;;;;;;3.73;2.50;;;;;;;5.39;56.25;96022.34;5108596;28;40604;-82
2023/01/17 14:56:34;;;;;;;4.17;2.60;;;;;;;5.24;56.47;95996.59;5074485;28;42784;-83
2023/01/17 14:59:12;;;;;;;2.57;1.97;;;;;;;5.34;56.41;96019.28;5108333;28;41482;-83
2023/01/17 15:01:41;;;;;;;2.83;2.20;;;;;;;5.11;56.76;95991.56;5075040;28;38756;-83
2023/01/17 15:04:23;;;;;;;2.90;2.03;;;;;;;5.27;56.87;96018.16;5074195;28;41171;-83
2023/01/17 15:06:51;;;;;;;3.73;2.43;;;;;;;5.21;56.77;96023.91;5091075;28;41936;-83
2023/01/17 15:09:22;;;;;;;2.80;2.40;;;;;;;5.16;57.23;96028.75;5076159;28;42344;-82
2023/01/17 15:11:53;;;;;;;3.10;2.17;;;;;;;5.02;57.03;96014.19;5123302;28;40230;-83
2023/01/17 15:14:23;;;;;;;3.07;2.73;;;;;;;5.03;57.40;96020.28;5096632;28;40257;-82
2023/01/17 15:16:51;;;;;;;2.33;1.97;;;;;;;4.78;57.50;95992.69;5131078;28;41712;-82
2023/01/17 15:19:20;;;;;;;4.50;2.83;;;;;;;4.80;57.67;96003.06;5096304;28;42120;-81
2023/01/17 15:21:51;;;;;;;4.17;2.57;;;;;;;4.79;57.95;96009.25;5096122;28;38930;-81
2023/01/17 15:24:22;;;;;;;5.10;3.20;;;;;;;4.47;58.19;95986.56;5114155;28;40067;-83
2023/01/17 15:26:52;;;;;;;4.97;2.87;;;;;;;4.47;58.41;95996.22;5092962;28;43482;-82
2023/01/17 15:29:25;;;;;;;5.67;3.50;;;;;;;4.45;58.96;96016.50;5096060;28;43107;-82
2023/01/17 15:31:56;;;;;;;5.27;3.30;;;;;;;4.26;58.79;96004.91;5112242;28;38845;-82
2023/01/17 15:34:28;;;;;;;4.37;3.67;;;;;;;4.15;58.86;96001.53;5094542;28;43344;-82
2023/01/17 15:36:58;;;;;;;3.93;2.77;;;;;;;4.11;59.28;96015.81;5077539;28;42578;-82
2023/01/17 15:39:29;;;;;;;4.57;3.23;;;;;;;4.07;59.06;96019.66;5094089;28;41468;-82
2023/01/17 15:42:02;;;;;;;4.77;3.23;;;;;;;3.97;59.21;96016.94;5110866;28;39593;-82
2023/01/17 15:44:33;;;;;;;4.60;3.17;;;;;;;4.00;59.43;96026.34;5094347;28;40646;-83
2023/01/17 15:47:03;;;;;;;5.20;3.60;;;;;;;3.87;59.51;96016.88;5126635;27;43455;-82
2023/01/17 15:49:31;;;;;;;4.80;2.70;;;;;;;3.93;59.62;96029.47;5076959;28;42342;-82
2023/01/17 15:52:15;;;;;;;4.70;3.33;;;;;;;3.84;59.66;96019.72;5128542;27;40977;-82
2023/01/17 15:54:46;;;;;;;3.33;2.47;;;;;;;3.80;59.72;96018.31;5091977;28;41660;-83
2023/01/17 15:57:34;;;;;;;4.07;2.90;;;;;;;3.73;60.18;96024.16;5093707;28;41900;-83
2023/01/17 16:00:06;;;;;;;4.90;3.40;;;;;;;3.52;59.93;96008.41;5092505;28;41213;-82
2023/01/17 16:02:39;;;;;;;7.10;3.73;;;;;;;3.58;60.28;96029.69;5093907;28;39089;-83
2023/01/17 16:05:40;;;;;;;6.50;4.20;;;;;;;3.50;60.61;96020.78;5124675;27;42614;-82
2023/01/17 16:08:27;;;;;;;6.37;3.80;;;;;;;3.41;60.91;96029.34;5075591;28;42584;-83
2023/01/17 16:11:00;;;;;;;8.77;5.53;;;;;;;3.32;60.73;96037.94;5093515;28;42365;-82
2023/01/17 16:13:32;;;;;;;12.33;7.60;;;;;;;3.18;60.78;96028.56;5076784;28;38851;-82
2023/01/17 16:16:21;;;;;;;10.77;6.10;;;;;;;3.15;61.31;96036.63;5076469;28;41741;-83
2023/01/17 16:18:58;;;;;;;16.90;8.63;;;;;;;3.07;61.69;96034.63;5076738;28;42869;-81
2023/01/17 16:21:27;;;;;;;19.77;8.83;;;;;;;3.00;61.69;96041.25;5109912;28;41360;-82
2023/01/17 16:23:55;;;;;;;18.20;8.83;;;;;;;2.95;61.78;96046.03;5076519;28;39018;-83
2023/01/17 16:26:23;;;;;;;12.13;7.63;;;;;;;2.76;62.01;96024.84;5076222;28;41651;-82
2023/01/17 16:28:52;;;;;;;14.07;7.53;;;;;;;2.86;62.28;96041.47;5093721;28;42835;-82
2023/01/17 16:31:20;;;;;;;10.03;5.87;;;;;;;2.82;62.40;96040.91;5094514;28;43537;-82
2023/01/17 16:33:49;;;;;;;10.43;6.07;;;;;;;2.72;62.69;96028.66;5093431;28;39820;-82
2023/01/17 16:36:19;;;;;;;8.23;5.20;;;;;;;2.72;62.63;96039.91;5076325;28;40711;-82
2023/01/17 16:38:49;;;;;;;10.33;4.93;;;;;;;2.79;63.15;96045.53;5127468;27;43290;-82
2023/01/17 16:41:18;;;;;;;6.70;4.83;;;;;;;2.78;62.90;96038.63;5094114;28;42817;-82
2023/01/17 16:43:47;;;;;;;8.30;4.53;;;;;;;2.77;63.32;96034.34;5076399;28;40281;-82
2023/01/17 16:46:22;;;;;;;7.23;4.70;;;;;;;2.77;62.97;96042.19;5093331;28;42875;-83
2023/01/17 16:48:49;;;;;;;7.43;4.40;;;;;;;2.73;63.04;96035.53;5092784;28;41638;-82
2023/01/17 16:51:18;;;;;;;6.60;4.80;;;;;;;2.65;63.38;96024.84;5092995;28;43238;-82
2023/01/17 16:53:46;;;;;;;7.80;4.93;;;;;;;2.61;63.41;96026.00;5076259;28;40354;-81
2023/01/17 16:56:16;;;;;;;10.03;4.77;;;;;;;2.60;63.63;96016.53;5075937;28;41910;-82
2023/01/17 16:58:44;;;;;;;7.30;5.07;;;;;;;2.65;63.79;96033.50;5076304;28;42045;-82
2023/01/17 17:01:15;;;;;;;7.73;5.47;;;;;;;2.69;63.70;96037.56;5093613;28;42573;-84
2023/01/17 17:03:45;;;;;;;10.13;5.50;;;;;;;2.60;63.89;96030.41;5076217;28;38948;-82
2023/01/17 17:06:13;;;;;;;10.40;6.07;;;;;;;2.61;64.06;96036.47;5126644;27;41635;-82
2023/01/17 17:08:42;;;;;;;11.37;7.03;;;;;;;2.33;64.10;95991.56;5093613;28;42696;-83
2023/01/17 17:11:13;;;;;;;17.13;9.30;;;;;;;2.46;64.02;96023.66;5092670;28;42412;-82
2023/01/17 17:13:42;;;;;;;14.50;7.43;;;;;;;2.51;64.70;96026.72;5075751;28;39162;-82
2023/01/17 17:16:15;;;;;;;13.73;8.10;;;;;;;2.47;65.02;96040.16;5109655;28;40764;-83
2023/01/17 17:18:46;;;;;;;14.33;8.77;;;;;;;2.41;65.22;96040.59;5092849;28;42944;-82
2023/01/17 17:21:14;;;;;;;16.63;10.10;;;;;;;2.37;65.51;96045.19;5090182;28;41927;-83
2023/01/17 17:23:42;;;;;;;16.13;10.07;;;;;;;2.31;65.47;96037.84;5090647;28;40196;-83
2023/01/17 17:26:10;;;;;;;15.93;9.77;;;;;;;2.29;65.69;96041.50;5092485;28;40905;-83
2023/01/17 17:28:38;;;;;;;13.97;8.07;;;;;;;2.31;66.10;96043.06;5092394;28;42736;-83
